»·PEaware :: USC81 KLAS-KTEX

USC81 :: KLAS-KTEX

FLIGHT INFORMATION

Flight Status: Arrived
Operator: Unknown
More flights by this operator :: More flights under this callsign
Pilot: Andy P. (22680)
Aircraft: GATES LEARJET LEARJET 35/36
(LJ35)
More flights by this aircraft type
Origin: KLAS McCarran Intl
United States
Destination: KTEX Telluride Regl
United States
More flights between these airports :: More routes between these airports
Route: TRALR9 DVC ETL
File this flight plan on PilotEdge
Remarks:
Altitude:
(Current/Filed)
35,000ft
Speed:
(Current/Filed)
465kts
Departed: 08-Jan-21 01:38 PM
Arrived: 08-Jan-21 02:36 PM
Distance/Time
Traveled:
365nm/0:58
Distance/Time
To Go:
Arrived

Flight Plot

Page will automatically refresh every two minutes.

Flight plan parsing failed; only flown route is shown


Map Options




Map Legend


Flown Route
Filed Route
Departure Airport
Arrival Airport
Navaid (VOR, NDB)
Fix

Horizontal Profiles

Position Reports

Time Latitude Longitude Heading Altitude Ground
Speed
08-Jan-21 13:14 36.079582 -115.126900 76 2184ft 0kts
08-Jan-21 13:15 36.079582 -115.126900 76 2184ft 0kts
08-Jan-21 13:16 36.079582 -115.126900 76 2184ft 0kts
08-Jan-21 13:17 36.079582 -115.126900 76 2184ft 0kts
08-Jan-21 13:18 36.079582 -115.126900 76 2184ft 0kts
08-Jan-21 13:19 36.079582 -115.126900 76 2184ft 0kts
08-Jan-21 13:20 36.079582 -115.126900 76 2184ft 0kts
08-Jan-21 13:21 36.079582 -115.126900 76 2184ft 0kts
08-Jan-21 13:22 36.079582 -115.126900 76 2184ft 0kts
08-Jan-21 13:23 36.079582 -115.126900 76 2184ft 0kts
08-Jan-21 13:24 36.079582 -115.126900 76 2184ft 0kts
08-Jan-21 13:25 36.079582 -115.126900 76 2184ft 0kts
08-Jan-21 13:26 36.079582 -115.126900 76 2184ft 0kts
08-Jan-21 13:27 36.079582 -115.126900 76 2184ft 0kts
08-Jan-21 13:28 36.079582 -115.126900 76 2184ft 0kts
08-Jan-21 13:29 36.079582 -115.126900 76 2184ft 0kts
08-Jan-21 13:30 36.079582 -115.126900 76 2184ft 0kts
08-Jan-21 13:31 36.079582 -115.126900 76 2184ft 0kts
08-Jan-21 13:32 36.079582 -115.126900 76 2184ft 0kts
08-Jan-21 13:33 36.079582 -115.126900 76 2184ft 0kts
08-Jan-21 13:34 36.079582 -115.126899 76 2184ft 0kts
08-Jan-21 13:35 36.078280 -115.124842 89 2184ft 16kts
08-Jan-21 13:36 36.077523 -115.121513 130 2184ft 0kts
08-Jan-21 13:37 36.076414 -115.132672 270 2184ft 130kts
08-Jan-21 13:38 36.077725 -115.196135 271 4101ft 199kts
08-Jan-21 13:39 36.058414 -115.256091 212 7080ft 216kts
08-Jan-21 13:40 36.003794 -115.286779 202 10070ft 217kts
08-Jan-21 13:41 35.943258 -115.292820 166 12398ft 243kts
08-Jan-21 13:42 35.879346 -115.249213 119 14713ft 288kts
08-Jan-21 13:43 35.863474 -115.151440 86 17194ft 303kts
08-Jan-21 13:44 35.873760 -115.044779 67 19306ft 320kts
08-Jan-21 13:45 35.922401 -114.939337 58 21595ft 371kts
08-Jan-21 13:46 35.972124 -114.823668 63 24278ft 390kts
08-Jan-21 13:47 36.019157 -114.700049 63 26582ft 404kts
08-Jan-21 13:48 36.068246 -114.572405 63 28507ft 417kts
08-Jan-21 13:49 36.118444 -114.441557 64 30599ft 422kts
08-Jan-21 13:50 36.168671 -114.310122 65 32530ft 423kts
08-Jan-21 13:51 36.202488 -114.172408 85 34235ft 418kts
08-Jan-21 13:52 36.219576 -114.028058 84 35185ft 435kts
08-Jan-21 13:53 36.237787 -113.873577 84 35260ft 469kts
08-Jan-21 13:54 36.256945 -113.709317 84 35270ft 493kts
08-Jan-21 13:55 36.276690 -113.537904 84 35276ft 510kts
08-Jan-21 13:56 36.296656 -113.362302 84 35223ft 511kts
08-Jan-21 13:57 36.324479 -113.191569 66 35216ft 505kts
08-Jan-21 13:58 36.382980 -113.034206 64 35217ft 500kts
08-Jan-21 13:59 36.441294 -112.876985 64 35217ft 502kts
08-Jan-21 14:00 36.499586 -112.718905 64 35218ft 503kts
08-Jan-21 14:01 36.557711 -112.560455 64 35218ft 504kts
08-Jan-21 14:02 36.615770 -112.401370 64 35231ft 504kts
08-Jan-21 14:03 36.673525 -112.242314 64 35231ft 505kts
08-Jan-21 14:04 36.731262 -112.082444 64 35232ft 506kts
08-Jan-21 14:05 36.788898 -111.922025 64 35239ft 506kts
08-Jan-21 14:06 36.846224 -111.761640 64 35249ft 506kts
08-Jan-21 14:07 36.903406 -111.600793 64 35257ft 506kts
08-Jan-21 14:08 36.960445 -111.439502 64 35258ft 506kts
08-Jan-21 14:09 37.017147 -111.278302 64 35258ft 506kts
08-Jan-21 14:10 37.073645 -111.116808 64 35258ft 506kts
08-Jan-21 14:11 37.129945 -110.955030 64 35258ft 506kts
08-Jan-21 14:12 37.186128 -110.792702 64 35258ft 506kts
08-Jan-21 14:13 37.241883 -110.630721 64 35291ft 505kts
08-Jan-21 14:14 37.297369 -110.468645 64 35295ft 505kts
08-Jan-21 14:15 37.352590 -110.306451 63 35295ft 505kts
08-Jan-21 14:16 37.407538 -110.144148 64 33813ft 498kts
08-Jan-21 14:17 37.461784 -109.985795 63 32048ft 494kts
08-Jan-21 14:19 37.516509 -109.825753 64 30268ft 496kts
08-Jan-21 14:20 37.570742 -109.666235 64 28498ft 495kts
08-Jan-21 14:21 37.624612 -109.506938 65 26734ft 494kts
08-Jan-21 14:22 37.678538 -109.346606 65 24961ft 497kts
08-Jan-21 14:23 37.732234 -109.186025 65 23185ft 485kts
08-Jan-21 14:24 37.783452 -109.032055 65 21487ft 470kts
08-Jan-21 14:25 37.833614 -108.880484 65 19818ft 465kts
08-Jan-21 14:26 37.883082 -108.730189 65 18164ft 451kts
08-Jan-21 14:27 37.929861 -108.587341 65 16596ft 430kts
08-Jan-21 14:28 37.975125 -108.448596 65 15076ft 421kts
08-Jan-21 14:29 38.017815 -108.323952 64 13682ft 331kts
08-Jan-21 14:30 38.029904 -108.224230 110 13324ft 265kts
08-Jan-21 14:30 38.009271 -108.156849 110 12929ft 237kts
08-Jan-21 14:32 37.988837 -108.077025 108 11816ft 189kts
08-Jan-21 14:33 37.975582 -108.015288 103 10724ft 164kts
08-Jan-21 14:33 37.966072 -107.969626 105 10042ft 155kts
08-Jan-21 14:34 37.955818 -107.918220 103 9081ft 136kts
08-Jan-21 14:36 37.952809 -107.901302 12 9081ft 6kts
08-Jan-21 14:37 37.954902 -107.902276 13 9081ft 11kts
08-Jan-21 14:37 37.954375 -107.902643 275 9081ft 5kts
08-Jan-21 14:38 37.954394 -107.902754 285 9081ft 0kts

Navigation Log

Ident Type
Flight plan parsing failed, navigation log unavailable